sensor_id;sensor_type;location;lat;lon;timestamp;P1;durP1;ratioP1;P2;durP2;ratioP2
6111;SDS011;3086;48.802;9.394;2022-08-30T00:03:11;6.53;;;5.20;;
6111;SDS011;3086;48.802;9.394;2022-08-30T00:06:35;7.47;;;5.27;;
6111;SDS011;3086;48.802;9.394;2022-08-30T00:09:56;10.67;;;6.07;;
6111;SDS011;3086;48.802;9.394;2022-08-30T00:13:18;6.77;;;6.07;;
6111;SDS011;3086;48.802;9.394;2022-08-30T00:16:41;6.57;;;5.73;;
6111;SDS011;3086;48.802;9.394;2022-08-30T00:20:03;6.60;;;5.50;;
6111;SDS011;3086;48.802;9.394;2022-08-30T00:23:26;9.47;;;6.00;;
6111;SDS011;3086;48.802;9.394;2022-08-30T00:26:48;10.83;;;5.50;;
6111;SDS011;3086;48.802;9.394;2022-08-30T00:30:11;6.30;;;5.70;;
6111;SDS011;3086;48.802;9.394;2022-08-30T00:33:34;8.20;;;5.50;;
6111;SDS011;3086;48.802;9.394;2022-08-30T00:36:56;6.83;;;5.93;;
6111;SDS011;3086;48.802;9.394;2022-08-30T00:40:20;6.90;;;5.80;;
6111;SDS011;3086;48.802;9.394;2022-08-30T00:43:42;7.77;;;5.40;;
6111;SDS011;3086;48.802;9.394;2022-08-30T00:47:04;7.30;;;5.40;;
6111;SDS011;3086;48.802;9.394;2022-08-30T00:50:27;6.03;;;5.50;;
6111;SDS011;3086;48.802;9.394;2022-08-30T00:53:52;10.87;;;5.50;;
6111;SDS011;3086;48.802;9.394;2022-08-30T00:57:16;9.47;;;5.47;;
6111;SDS011;3086;48.802;9.394;2022-08-30T01:00:38;7.07;;;5.67;;
6111;SDS011;3086;48.802;9.394;2022-08-30T01:04:00;6.47;;;5.87;;
6111;SDS011;3086;48.802;9.394;2022-08-30T01:07:22;8.43;;;5.60;;
6111;SDS011;3086;48.802;9.394;2022-08-30T01:10:44;8.00;;;5.80;;
6111;SDS011;3086;48.802;9.394;2022-08-30T01:14:07;7.67;;;5.40;;
6111;SDS011;3086;48.802;9.394;2022-08-30T01:17:30;7.23;;;5.67;;
6111;SDS011;3086;48.802;9.394;2022-08-30T01:20:53;7.57;;;5.57;;
6111;SDS011;3086;48.802;9.394;2022-08-30T01:24:20;6.83;;;5.77;;
6111;SDS011;3086;48.802;9.394;2022-08-30T01:27:43;7.50;;;5.80;;
6111;SDS011;3086;48.802;9.394;2022-08-30T01:31:07;7.10;;;5.37;;
6111;SDS011;3086;48.802;9.394;2022-08-30T01:34:29;9.30;;;5.90;;
6111;SDS011;3086;48.802;9.394;2022-08-30T01:37:51;9.27;;;6.30;;
6111;SDS011;3086;48.802;9.394;2022-08-30T01:41:16;6.40;;;5.80;;
6111;SDS011;3086;48.802;9.394;2022-08-30T01:44:38;9.20;;;6.20;;
6111;SDS011;3086;48.802;9.394;2022-08-30T01:48:00;7.57;;;5.90;;
6111;SDS011;3086;48.802;9.394;2022-08-30T01:51:22;6.73;;;5.60;;
6111;SDS011;3086;48.802;9.394;2022-08-30T01:54:45;6.27;;;5.67;;
6111;SDS011;3086;48.802;9.394;2022-08-30T01:58:08;8.13;;;5.90;;
6111;SDS011;3086;48.802;9.394;2022-08-30T02:01:33;7.27;;;6.10;;
6111;SDS011;3086;48.802;9.394;2022-08-30T02:04:58;6.97;;;6.00;;
6111;SDS011;3086;48.802;9.394;2022-08-30T02:08:20;7.07;;;6.00;;
6111;SDS011;3086;48.802;9.394;2022-08-30T02:11:41;8.63;;;5.80;;
6111;SDS011;3086;48.802;9.394;2022-08-30T02:15:05;8.17;;;5.43;;
6111;SDS011;3086;48.802;9.394;2022-08-30T02:18:29;7.27;;;6.30;;
6111;SDS011;3086;48.802;9.394;2022-08-30T02:21:53;9.80;;;6.40;;
6111;SDS011;3086;48.802;9.394;2022-08-30T02:25:15;7.80;;;6.17;;
6111;SDS011;3086;48.802;9.394;2022-08-30T02:28:37;8.03;;;6.17;;
6111;SDS011;3086;48.802;9.394;2022-08-30T02:32:00;8.80;;;6.60;;
6111;SDS011;3086;48.802;9.394;2022-08-30T02:35:21;8.73;;;6.73;;
6111;SDS011;3086;48.802;9.394;2022-08-30T02:38:43;7.87;;;6.30;;
6111;SDS011;3086;48.802;9.394;2022-08-30T02:42:05;7.23;;;6.23;;
6111;SDS011;3086;48.802;9.394;2022-08-30T02:45:26;9.67;;;5.83;;
6111;SDS011;3086;48.802;9.394;2022-08-30T02:48:49;10.33;;;6.37;;
6111;SDS011;3086;48.802;9.394;2022-08-30T02:52:11;7.63;;;6.20;;
6111;SDS011;3086;48.802;9.394;2022-08-30T02:55:32;9.23;;;6.50;;
6111;SDS011;3086;48.802;9.394;2022-08-30T02:58:54;11.40;;;6.47;;
6111;SDS011;3086;48.802;9.394;2022-08-30T03:02:16;9.80;;;7.27;;
6111;SDS011;3086;48.802;9.394;2022-08-30T03:05:39;7.17;;;6.27;;
6111;SDS011;3086;48.802;9.394;2022-08-30T03:09:01;8.37;;;6.37;;
6111;SDS011;3086;48.802;9.394;2022-08-30T03:12:22;8.20;;;6.40;;
6111;SDS011;3086;48.802;9.394;2022-08-30T03:15:45;6.47;;;5.70;;
6111;SDS011;3086;48.802;9.394;2022-08-30T03:19:09;10.27;;;6.93;;
6111;SDS011;3086;48.802;9.394;2022-08-30T03:22:32;8.87;;;7.60;;
6111;SDS011;3086;48.802;9.394;2022-08-30T03:25:54;10.40;;;7.43;;
6111;SDS011;3086;48.802;9.394;2022-08-30T03:29:16;8.20;;;6.97;;
6111;SDS011;3086;48.802;9.394;2022-08-30T03:32:38;8.03;;;6.43;;
6111;SDS011;3086;48.802;9.394;2022-08-30T03:36:00;8.63;;;6.77;;
6111;SDS011;3086;48.802;9.394;2022-08-30T03:39:23;8.23;;;7.10;;
6111;SDS011;3086;48.802;9.394;2022-08-30T03:42:45;9.63;;;6.70;;
6111;SDS011;3086;48.802;9.394;2022-08-30T03:46:08;9.93;;;6.73;;
6111;SDS011;3086;48.802;9.394;2022-08-30T03:49:31;8.07;;;6.30;;
6111;SDS011;3086;48.802;9.394;2022-08-30T03:52:53;9.03;;;6.43;;
6111;SDS011;3086;48.802;9.394;2022-08-30T03:56:16;9.40;;;6.70;;
6111;SDS011;3086;48.802;9.394;2022-08-30T03:59:38;7.60;;;6.67;;
6111;SDS011;3086;48.802;9.394;2022-08-30T04:03:00;8.00;;;6.83;;
6111;SDS011;3086;48.802;9.394;2022-08-30T04:06:21;7.90;;;6.63;;
6111;SDS011;3086;48.802;9.394;2022-08-30T04:09:43;8.10;;;6.30;;
6111;SDS011;3086;48.802;9.394;2022-08-30T04:13:06;8.60;;;6.63;;
6111;SDS011;3086;48.802;9.394;2022-08-30T04:16:28;7.90;;;7.13;;
6111;SDS011;3086;48.802;9.394;2022-08-30T04:19:49;9.23;;;7.37;;
6111;SDS011;3086;48.802;9.394;2022-08-30T04:23:11;7.80;;;6.80;;
6111;SDS011;3086;48.802;9.394;2022-08-30T04:26:32;7.73;;;6.87;;
6111;SDS011;3086;48.802;9.394;2022-08-30T04:29:57;7.37;;;6.67;;
6111;SDS011;3086;48.802;9.394;2022-08-30T04:33:20;8.03;;;6.43;;
6111;SDS011;3086;48.802;9.394;2022-08-30T04:36:41;8.10;;;7.30;;
6111;SDS011;3086;48.802;9.394;2022-08-30T04:40:03;9.23;;;6.73;;
6111;SDS011;3086;48.802;9.394;2022-08-30T04:43:25;7.50;;;6.40;;
6111;SDS011;3086;48.802;9.394;2022-08-30T04:46:48;10.40;;;6.63;;
6111;SDS011;3086;48.802;9.394;2022-08-30T04:50:11;8.57;;;6.90;;
6111;SDS011;3086;48.802;9.394;2022-08-30T04:53:35;11.27;;;7.57;;
6111;SDS011;3086;48.802;9.394;2022-08-30T04:56:56;9.60;;;7.40;;
6111;SDS011;3086;48.802;9.394;2022-08-30T05:00:18;9.87;;;6.77;;
6111;SDS011;3086;48.802;9.394;2022-08-30T05:03:42;8.33;;;6.13;;
6111;SDS011;3086;48.802;9.394;2022-08-30T05:07:03;8.83;;;7.20;;
6111;SDS011;3086;48.802;9.394;2022-08-30T05:10:25;9.47;;;7.33;;
6111;SDS011;3086;48.802;9.394;2022-08-30T05:13:47;8.00;;;7.17;;
6111;SDS011;3086;48.802;9.394;2022-08-30T05:17:09;10.20;;;6.47;;
6111;SDS011;3086;48.802;9.394;2022-08-30T05:20:32;9.30;;;6.87;;
6111;SDS011;3086;48.802;9.394;2022-08-30T05:23:55;7.67;;;6.23;;
6111;SDS011;3086;48.802;9.394;2022-08-30T05:27:17;9.50;;;6.63;;
6111;SDS011;3086;48.802;9.394;2022-08-30T05:30:39;9.57;;;6.90;;
6111;SDS011;3086;48.802;9.394;2022-08-30T05:34:00;7.80;;;6.90;;
6111;SDS011;3086;48.802;9.394;2022-08-30T05:37:23;13.27;;;7.60;;
6111;SDS011;3086;48.802;9.394;2022-08-30T05:40:45;8.47;;;6.40;;
6111;SDS011;3086;48.802;9.394;2022-08-30T05:44:07;8.57;;;6.47;;
6111;SDS011;3086;48.802;9.394;2022-08-30T05:47:29;9.73;;;6.67;;
6111;SDS011;3086;48.802;9.394;2022-08-30T05:50:59;6.13;;;5.63;;
6111;SDS011;3086;48.802;9.394;2022-08-30T05:54:23;8.67;;;6.10;;
6111;SDS011;3086;48.802;9.394;2022-08-30T05:57:44;7.77;;;6.07;;
6111;SDS011;3086;48.802;9.394;2022-08-30T06:01:06;8.13;;;6.27;;
6111;SDS011;3086;48.802;9.394;2022-08-30T06:04:29;9.67;;;6.10;;
6111;SDS011;3086;48.802;9.394;2022-08-30T06:07:51;9.37;;;5.73;;
6111;SDS011;3086;48.802;9.394;2022-08-30T06:11:14;11.07;;;6.27;;
6111;SDS011;3086;48.802;9.394;2022-08-30T06:14:38;7.90;;;6.60;;
6111;SDS011;3086;48.802;9.394;2022-08-30T06:17:59;8.87;;;5.93;;
6111;SDS011;3086;48.802;9.394;2022-08-30T06:21:22;7.60;;;5.53;;
6111;SDS011;3086;48.802;9.394;2022-08-30T06:24:44;6.60;;;5.83;;
6111;SDS011;3086;48.802;9.394;2022-08-30T06:28:08;8.17;;;5.63;;
6111;SDS011;3086;48.802;9.394;2022-08-30T06:31:30;8.00;;;5.50;;
6111;SDS011;3086;48.802;9.394;2022-08-30T06:34:52;7.60;;;6.23;;
6111;SDS011;3086;48.802;9.394;2022-08-30T06:38:13;5.80;;;4.97;;
6111;SDS011;3086;48.802;9.394;2022-08-30T06:41:36;5.80;;;5.17;;
6111;SDS011;3086;48.802;9.394;2022-08-30T06:45:01;6.10;;;5.50;;
6111;SDS011;3086;48.802;9.394;2022-08-30T06:48:23;6.87;;;5.30;;
6111;SDS011;3086;48.802;9.394;2022-08-30T06:51:44;6.27;;;5.67;;
6111;SDS011;3086;48.802;9.394;2022-08-30T06:55:06;7.23;;;5.13;;
6111;SDS011;3086;48.802;9.394;2022-08-30T06:58:29;9.97;;;5.43;;
6111;SDS011;3086;48.802;9.394;2022-08-30T07:01:53;6.53;;;5.37;;
6111;SDS011;3086;48.802;9.394;2022-08-30T07:05:16;5.53;;;5.03;;
6111;SDS011;3086;48.802;9.394;2022-08-30T07:08:41;5.93;;;5.20;;
6111;SDS011;3086;48.802;9.394;2022-08-30T07:12:02;6.03;;;5.40;;
6111;SDS011;3086;48.802;9.394;2022-08-30T07:15:25;6.90;;;5.20;;
6111;SDS011;3086;48.802;9.394;2022-08-30T07:18:48;5.37;;;4.87;;
6111;SDS011;3086;48.802;9.394;2022-08-30T07:22:17;7.90;;;5.07;;
6111;SDS011;3086;48.802;9.394;2022-08-30T07:25:39;6.37;;;4.63;;
6111;SDS011;3086;48.802;9.394;2022-08-30T07:29:01;5.53;;;4.93;;
6111;SDS011;3086;48.802;9.394;2022-08-30T07:32:24;6.93;;;4.60;;
6111;SDS011;3086;48.802;9.394;2022-08-30T07:35:48;6.73;;;5.10;;
6111;SDS011;3086;48.802;9.394;2022-08-30T07:39:09;6.93;;;5.10;;
6111;SDS011;3086;48.802;9.394;2022-08-30T07:42:31;6.43;;;4.63;;
6111;SDS011;3086;48.802;9.394;2022-08-30T07:45:52;6.50;;;4.63;;
6111;SDS011;3086;48.802;9.394;2022-08-30T07:49:14;6.40;;;4.40;;
6111;SDS011;3086;48.802;9.394;2022-08-30T07:52:38;5.47;;;4.87;;
6111;SDS011;3086;48.802;9.394;2022-08-30T07:55:59;5.57;;;4.83;;
6111;SDS011;3086;48.802;9.394;2022-08-30T07:59:21;7.07;;;4.87;;
6111;SDS011;3086;48.802;9.394;2022-08-30T08:02:43;5.77;;;4.67;;
6111;SDS011;3086;48.802;9.394;2022-08-30T08:06:05;4.50;;;4.10;;
6111;SDS011;3086;48.802;9.394;2022-08-30T08:09:29;6.80;;;4.67;;
6111;SDS011;3086;48.802;9.394;2022-08-30T08:12:50;4.60;;;4.20;;
6111;SDS011;3086;48.802;9.394;2022-08-30T08:16:12;5.30;;;4.80;;
6111;SDS011;3086;48.802;9.394;2022-08-30T08:19:33;5.97;;;4.50;;
6111;SDS011;3086;48.802;9.394;2022-08-30T08:22:55;6.83;;;5.00;;
6111;SDS011;3086;48.802;9.394;2022-08-30T08:26:18;7.63;;;5.23;;
6111;SDS011;3086;48.802;9.394;2022-08-30T08:29:40;7.10;;;4.97;;
6111;SDS011;3086;48.802;9.394;2022-08-30T08:33:02;5.00;;;4.60;;
6111;SDS011;3086;48.802;9.394;2022-08-30T08:36:25;7.73;;;5.30;;
6111;SDS011;3086;48.802;9.394;2022-08-30T08:39:49;6.73;;;4.60;;
6111;SDS011;3086;48.802;9.394;2022-08-30T08:43:13;5.50;;;5.00;;
6111;SDS011;3086;48.802;9.394;2022-08-30T08:46:36;8.87;;;5.00;;
6111;SDS011;3086;48.802;9.394;2022-08-30T08:50:04;6.10;;;4.87;;
6111;SDS011;3086;48.802;9.394;2022-08-30T08:53:28;7.40;;;5.07;;
6111;SDS011;3086;48.802;9.394;2022-08-30T08:56:54;9.30;;;5.40;;
6111;SDS011;3086;48.802;9.394;2022-08-30T09:00:18;7.43;;;5.33;;
6111;SDS011;3086;48.802;9.394;2022-08-30T09:03:39;6.87;;;5.50;;
6111;SDS011;3086;48.802;9.394;2022-08-30T09:07:02;6.40;;;5.70;;
6111;SDS011;3086;48.802;9.394;2022-08-30T09:10:26;5.23;;;4.60;;
6111;SDS011;3086;48.802;9.394;2022-08-30T09:13:49;6.07;;;5.30;;
6111;SDS011;3086;48.802;9.394;2022-08-30T09:17:12;5.73;;;4.67;;
6111;SDS011;3086;48.802;9.394;2022-08-30T09:20:36;6.70;;;5.13;;
6111;SDS011;3086;48.802;9.394;2022-08-30T09:24:01;5.40;;;4.90;;
6111;SDS011;3086;48.802;9.394;2022-08-30T09:27:27;5.70;;;4.90;;
6111;SDS011;3086;48.802;9.394;2022-08-30T09:31:02;6.30;;;4.90;;
6111;SDS011;3086;48.802;9.394;2022-08-30T09:34:26;6.17;;;5.53;;
6111;SDS011;3086;48.802;9.394;2022-08-30T09:37:54;6.77;;;5.30;;
6111;SDS011;3086;48.802;9.394;2022-08-30T09:41:27;5.67;;;5.17;;
6111;SDS011;3086;48.802;9.394;2022-08-30T09:44:52;6.53;;;5.27;;
6111;SDS011;3086;48.802;9.394;2022-08-30T09:48:30;6.33;;;5.40;;
6111;SDS011;3086;48.802;9.394;2022-08-30T09:51:54;5.40;;;4.70;;
6111;SDS011;3086;48.802;9.394;2022-08-30T09:55:36;4.83;;;4.40;;
6111;SDS011;3086;48.802;9.394;2022-08-30T09:59:06;6.87;;;5.27;;
6111;SDS011;3086;48.802;9.394;2022-08-30T10:02:35;6.23;;;4.80;;
6111;SDS011;3086;48.802;9.394;2022-08-30T10:06:05;4.90;;;4.50;;
6111;SDS011;3086;48.802;9.394;2022-08-30T10:09:34;5.27;;;4.37;;
6111;SDS011;3086;48.802;9.394;2022-08-30T10:13:02;6.47;;;4.67;;
6111;SDS011;3086;48.802;9.394;2022-08-30T10:16:34;5.30;;;4.77;;
6111;SDS011;3086;48.802;9.394;2022-08-30T10:20:05;4.80;;;4.30;;
6111;SDS011;3086;48.802;9.394;2022-08-30T10:23:32;7.50;;;4.80;;
6111;SDS011;3086;48.802;9.394;2022-08-30T10:26:59;5.53;;;4.83;;
6111;SDS011;3086;48.802;9.394;2022-08-30T10:30:24;5.67;;;5.17;;
6111;SDS011;3086;48.802;9.394;2022-08-30T10:33:46;6.27;;;4.80;;
6111;SDS011;3086;48.802;9.394;2022-08-30T10:37:12;5.50;;;4.87;;
6111;SDS011;3086;48.802;9.394;2022-08-30T10:40:36;5.33;;;4.80;;
6111;SDS011;3086;48.802;9.394;2022-08-30T10:44:19;4.93;;;4.43;;
6111;SDS011;3086;48.802;9.394;2022-08-30T10:47:43;4.83;;;4.40;;
6111;SDS011;3086;48.802;9.394;2022-08-30T10:51:09;4.57;;;4.17;;
6111;SDS011;3086;48.802;9.394;2022-08-30T10:54:36;4.90;;;4.50;;
6111;SDS011;3086;48.802;9.394;2022-08-30T10:58:02;5.93;;;5.03;;
6111;SDS011;3086;48.802;9.394;2022-08-30T11:01:29;7.60;;;5.27;;
6111;SDS011;3086;48.802;9.394;2022-08-30T11:05:07;7.17;;;5.07;;
6111;SDS011;3086;48.802;9.394;2022-08-30T11:08:42;5.47;;;4.90;;
6111;SDS011;3086;48.802;9.394;2022-08-30T11:12:35;4.40;;;4.00;;
6111;SDS011;3086;48.802;9.394;2022-08-30T11:15:59;4.40;;;4.10;;
6111;SDS011;3086;48.802;9.394;2022-08-30T11:19:25;4.97;;;4.57;;
6111;SDS011;3086;48.802;9.394;2022-08-30T11:34:10;5.17;;;4.37;;
6111;SDS011;3086;48.802;9.394;2022-08-30T11:37:35;4.83;;;4.30;;
6111;SDS011;3086;48.802;9.394;2022-08-30T11:41:05;5.13;;;4.23;;
6111;SDS011;3086;48.802;9.394;2022-08-30T11:44:28;4.50;;;4.10;;
6111;SDS011;3086;48.802;9.394;2022-08-30T11:47:52;5.53;;;4.60;;
6111;SDS011;3086;48.802;9.394;2022-08-30T11:58:53;4.43;;;4.03;;
6111;SDS011;3086;48.802;9.394;2022-08-30T12:06:01;4.10;;;3.80;;
6111;SDS011;3086;48.802;9.394;2022-08-30T12:17:16;4.90;;;4.37;;
6111;SDS011;3086;48.802;9.394;2022-08-30T12:21:01;4.33;;;4.03;;
6111;SDS011;3086;48.802;9.394;2022-08-30T12:24:26;4.47;;;4.07;;
6111;SDS011;3086;48.802;9.394;2022-08-30T12:28:06;4.60;;;4.20;;
6111;SDS011;3086;48.802;9.394;2022-08-30T12:31:30;5.50;;;4.47;;
6111;SDS011;3086;48.802;9.394;2022-08-30T12:34:52;4.30;;;3.77;;
6111;SDS011;3086;48.802;9.394;2022-08-30T12:38:18;5.27;;;4.77;;
6111;SDS011;3086;48.802;9.394;2022-08-30T12:41:41;6.57;;;4.33;;
6111;SDS011;3086;48.802;9.394;2022-08-30T12:45:05;4.40;;;4.00;;
6111;SDS011;3086;48.802;9.394;2022-08-30T12:48:33;6.50;;;4.20;;
6111;SDS011;3086;48.802;9.394;2022-08-30T12:51:57;5.20;;;4.10;;
6111;SDS011;3086;48.802;9.394;2022-08-30T12:55:48;5.07;;;4.10;;
6111;SDS011;3086;48.802;9.394;2022-08-30T13:03:02;5.47;;;4.10;;
6111;SDS011;3086;48.802;9.394;2022-08-30T13:06:37;5.13;;;4.20;;
6111;SDS011;3086;48.802;9.394;2022-08-30T13:10:07;5.33;;;3.70;;
6111;SDS011;3086;48.802;9.394;2022-08-30T13:13:34;5.33;;;3.90;;
6111;SDS011;3086;48.802;9.394;2022-08-30T13:17:04;4.83;;;4.03;;
6111;SDS011;3086;48.802;9.394;2022-08-30T13:20:31;4.40;;;4.00;;
6111;SDS011;3086;48.802;9.394;2022-08-30T13:23:56;5.97;;;4.30;;
6111;SDS011;3086;48.802;9.394;2022-08-30T13:27:18;4.10;;;3.80;;
6111;SDS011;3086;48.802;9.394;2022-08-30T13:30:40;4.77;;;4.33;;
6111;SDS011;3086;48.802;9.394;2022-08-30T13:34:02;4.20;;;3.80;;
6111;SDS011;3086;48.802;9.394;2022-08-30T13:37:24;6.27;;;4.10;;
6111;SDS011;3086;48.802;9.394;2022-08-30T13:40:47;4.20;;;3.80;;
6111;SDS011;3086;48.802;9.394;2022-08-30T13:44:08;4.10;;;3.80;;
6111;SDS011;3086;48.802;9.394;2022-08-30T13:47:30;4.30;;;3.90;;
6111;SDS011;3086;48.802;9.394;2022-08-30T13:50:52;4.20;;;3.80;;
6111;SDS011;3086;48.802;9.394;2022-08-30T13:54:14;4.33;;;3.93;;
6111;SDS011;3086;48.802;9.394;2022-08-30T13:57:37;4.00;;;3.70;;
6111;SDS011;3086;48.802;9.394;2022-08-30T14:00:59;4.57;;;4.20;;
6111;SDS011;3086;48.802;9.394;2022-08-30T14:04:20;5.00;;;4.17;;
6111;SDS011;3086;48.802;9.394;2022-08-30T14:07:42;4.33;;;3.93;;
6111;SDS011;3086;48.802;9.394;2022-08-30T14:11:04;6.67;;;4.00;;
6111;SDS011;3086;48.802;9.394;2022-08-30T14:14:27;3.83;;;3.53;;
6111;SDS011;3086;48.802;9.394;2022-08-30T14:17:49;4.23;;;3.80;;
6111;SDS011;3086;48.802;9.394;2022-08-30T14:21:10;4.97;;;4.13;;
6111;SDS011;3086;48.802;9.394;2022-08-30T14:24:32;5.30;;;3.90;;
6111;SDS011;3086;48.802;9.394;2022-08-30T14:27:53;10.27;;;4.10;;
6111;SDS011;3086;48.802;9.394;2022-08-30T14:31:16;4.70;;;4.30;;
6111;SDS011;3086;48.802;9.394;2022-08-30T14:34:38;6.77;;;3.90;;
6111;SDS011;3086;48.802;9.394;2022-08-30T14:37:59;4.67;;;3.67;;
6111;SDS011;3086;48.802;9.394;2022-08-30T14:41:21;9.93;;;4.20;;
6111;SDS011;3086;48.802;9.394;2022-08-30T14:44:43;5.17;;;4.13;;
6111;SDS011;3086;48.802;9.394;2022-08-30T14:48:06;5.70;;;4.10;;
6111;SDS011;3086;48.802;9.394;2022-08-30T14:51:28;4.87;;;3.87;;
6111;SDS011;3086;48.802;9.394;2022-08-30T14:54:49;5.00;;;4.00;;
6111;SDS011;3086;48.802;9.394;2022-08-30T14:58:11;5.73;;;4.00;;
6111;SDS011;3086;48.802;9.394;2022-08-30T15:01:37;4.20;;;3.80;;
6111;SDS011;3086;48.802;9.394;2022-08-30T15:05:00;4.47;;;4.07;;
6111;SDS011;3086;48.802;9.394;2022-08-30T15:08:22;4.73;;;4.33;;
6111;SDS011;3086;48.802;9.394;2022-08-30T15:11:44;5.60;;;3.90;;
6111;SDS011;3086;48.802;9.394;2022-08-30T15:15:07;4.77;;;4.17;;
6111;SDS011;3086;48.802;9.394;2022-08-30T15:18:30;7.10;;;5.30;;
6111;SDS011;3086;48.802;9.394;2022-08-30T15:21:53;8.27;;;4.53;;
6111;SDS011;3086;48.802;9.394;2022-08-30T15:25:14;5.60;;;3.93;;
6111;SDS011;3086;48.802;9.394;2022-08-30T15:28:36;10.40;;;6.60;;
6111;SDS011;3086;48.802;9.394;2022-08-30T15:31:58;13.00;;;6.23;;
6111;SDS011;3086;48.802;9.394;2022-08-30T15:35:20;9.40;;;5.83;;
6111;SDS011;3086;48.802;9.394;2022-08-30T15:38:43;7.17;;;5.13;;
6111;SDS011;3086;48.802;9.394;2022-08-30T15:42:04;10.10;;;5.03;;
6111;SDS011;3086;48.802;9.394;2022-08-30T15:45:26;5.00;;;4.50;;
6111;SDS011;3086;48.802;9.394;2022-08-30T15:48:49;4.83;;;4.43;;
6111;SDS011;3086;48.802;9.394;2022-08-30T15:52:14;4.40;;;4.10;;
6111;SDS011;3086;48.802;9.394;2022-08-30T15:55:37;4.70;;;4.30;;
6111;SDS011;3086;48.802;9.394;2022-08-30T15:58:58;5.10;;;4.60;;
6111;SDS011;3086;48.802;9.394;2022-08-30T16:02:20;4.53;;;3.90;;
6111;SDS011;3086;48.802;9.394;2022-08-30T16:05:42;4.90;;;4.50;;
6111;SDS011;3086;48.802;9.394;2022-08-30T16:09:03;4.60;;;4.30;;
6111;SDS011;3086;48.802;9.394;2022-08-30T16:12:28;5.67;;;4.37;;
6111;SDS011;3086;48.802;9.394;2022-08-30T16:15:49;6.97;;;4.57;;
6111;SDS011;3086;48.802;9.394;2022-08-30T16:19:11;6.97;;;4.70;;
6111;SDS011;3086;48.802;9.394;2022-08-30T16:22:32;4.87;;;4.47;;
6111;SDS011;3086;48.802;9.394;2022-08-30T16:25:54;4.90;;;4.40;;
6111;SDS011;3086;48.802;9.394;2022-08-30T16:29:17;4.70;;;4.30;;
6111;SDS011;3086;48.802;9.394;2022-08-30T16:32:39;5.57;;;4.50;;
6111;SDS011;3086;48.802;9.394;2022-08-30T16:36:00;4.57;;;4.00;;
6111;SDS011;3086;48.802;9.394;2022-08-30T16:39:22;4.63;;;4.23;;
6111;SDS011;3086;48.802;9.394;2022-08-30T16:42:44;4.90;;;4.47;;
6111;SDS011;3086;48.802;9.394;2022-08-30T16:46:08;5.13;;;4.50;;
6111;SDS011;3086;48.802;9.394;2022-08-30T16:49:31;4.83;;;4.40;;
6111;SDS011;3086;48.802;9.394;2022-08-30T16:52:52;5.77;;;4.17;;
6111;SDS011;3086;48.802;9.394;2022-08-30T16:56:14;6.93;;;4.63;;
6111;SDS011;3086;48.802;9.394;2022-08-30T16:59:37;4.60;;;4.20;;
6111;SDS011;3086;48.802;9.394;2022-08-30T17:03:00;7.83;;;4.40;;
6111;SDS011;3086;48.802;9.394;2022-08-30T17:06:22;4.93;;;4.50;;
6111;SDS011;3086;48.802;9.394;2022-08-30T17:09:44;5.20;;;4.33;;
6111;SDS011;3086;48.802;9.394;2022-08-30T17:13:05;5.20;;;4.67;;
6111;SDS011;3086;48.802;9.394;2022-08-30T17:16:27;4.50;;;4.10;;
6111;SDS011;3086;48.802;9.394;2022-08-30T17:19:51;4.80;;;4.40;;
6111;SDS011;3086;48.802;9.394;2022-08-30T17:23:12;5.30;;;4.60;;
6111;SDS011;3086;48.802;9.394;2022-08-30T17:26:35;4.77;;;4.37;;
6111;SDS011;3086;48.802;9.394;2022-08-30T17:29:57;5.13;;;4.53;;
6111;SDS011;3086;48.802;9.394;2022-08-30T17:33:19;5.73;;;4.70;;
6111;SDS011;3086;48.802;9.394;2022-08-30T17:36:42;4.97;;;4.47;;
6111;SDS011;3086;48.802;9.394;2022-08-30T17:40:03;7.70;;;4.60;;
6111;SDS011;3086;48.802;9.394;2022-08-30T17:43:26;4.57;;;4.17;;
6111;SDS011;3086;48.802;9.394;2022-08-30T17:46:47;4.30;;;3.90;;
6111;SDS011;3086;48.802;9.394;2022-08-30T17:50:09;4.87;;;4.17;;
6111;SDS011;3086;48.802;9.394;2022-08-30T17:53:34;4.67;;;4.23;;
6111;SDS011;3086;48.802;9.394;2022-08-30T17:56:56;5.27;;;4.13;;
6111;SDS011;3086;48.802;9.394;2022-08-30T18:00:18;5.87;;;4.50;;
6111;SDS011;3086;48.802;9.394;2022-08-30T18:03:40;5.00;;;4.47;;
6111;SDS011;3086;48.802;9.394;2022-08-30T18:07:02;5.73;;;3.97;;
6111;SDS011;3086;48.802;9.394;2022-08-30T18:10:25;6.07;;;4.00;;
6111;SDS011;3086;48.802;9.394;2022-08-30T18:13:46;5.20;;;4.17;;
6111;SDS011;3086;48.802;9.394;2022-08-30T18:17:08;5.00;;;4.27;;
6111;SDS011;3086;48.802;9.394;2022-08-30T18:20:29;6.27;;;4.60;;
6111;SDS011;3086;48.802;9.394;2022-08-30T18:23:51;4.63;;;3.93;;
6111;SDS011;3086;48.802;9.394;2022-08-30T18:27:14;6.13;;;4.70;;
6111;SDS011;3086;48.802;9.394;2022-08-30T18:30:36;6.30;;;4.70;;
6111;SDS011;3086;48.802;9.394;2022-08-30T18:33:57;5.63;;;5.00;;
6111;SDS011;3086;48.802;9.394;2022-08-30T18:37:20;6.17;;;4.87;;
6111;SDS011;3086;48.802;9.394;2022-08-30T18:40:42;3.90;;;3.60;;
6111;SDS011;3086;48.802;9.394;2022-08-30T18:44:05;5.00;;;4.03;;
6111;SDS011;3086;48.802;9.394;2022-08-30T18:47:27;5.13;;;4.37;;
6111;SDS011;3086;48.802;9.394;2022-08-30T18:50:48;5.10;;;4.60;;
6111;SDS011;3086;48.802;9.394;2022-08-30T18:54:10;4.97;;;4.47;;
6111;SDS011;3086;48.802;9.394;2022-08-30T18:57:31;5.80;;;3.97;;
6111;SDS011;3086;48.802;9.394;2022-08-30T19:00:54;4.57;;;3.60;;
6111;SDS011;3086;48.802;9.394;2022-08-30T19:04:16;6.03;;;4.33;;
6111;SDS011;3086;48.802;9.394;2022-08-30T19:07:38;5.07;;;4.10;;
6111;SDS011;3086;48.802;9.394;2022-08-30T19:10:59;6.27;;;4.53;;
6111;SDS011;3086;48.802;9.394;2022-08-30T19:14:21;8.20;;;4.33;;
6111;SDS011;3086;48.802;9.394;2022-08-30T19:17:44;4.87;;;4.17;;
6111;SDS011;3086;48.802;9.394;2022-08-30T19:21:06;4.80;;;4.40;;
6111;SDS011;3086;48.802;9.394;2022-08-30T19:24:28;5.83;;;4.07;;
6111;SDS011;3086;48.802;9.394;2022-08-30T19:27:49;5.00;;;4.10;;
6111;SDS011;3086;48.802;9.394;2022-08-30T19:31:12;5.43;;;3.83;;
6111;SDS011;3086;48.802;9.394;2022-08-30T19:34:35;6.00;;;4.83;;
6111;SDS011;3086;48.802;9.394;2022-08-30T19:37:57;5.53;;;4.27;;
6111;SDS011;3086;48.802;9.394;2022-08-30T19:41:18;6.50;;;4.80;;
6111;SDS011;3086;48.802;9.394;2022-08-30T19:44:40;8.37;;;5.30;;
6111;SDS011;3086;48.802;9.394;2022-08-30T19:48:02;6.07;;;4.90;;
6111;SDS011;3086;48.802;9.394;2022-08-30T19:51:25;6.67;;;4.50;;
6111;SDS011;3086;48.802;9.394;2022-08-30T19:54:47;4.83;;;4.00;;
6111;SDS011;3086;48.802;9.394;2022-08-30T19:58:08;5.70;;;4.23;;
6111;SDS011;3086;48.802;9.394;2022-08-30T20:01:30;5.23;;;4.00;;
6111;SDS011;3086;48.802;9.394;2022-08-30T20:04:51;7.57;;;4.10;;
6111;SDS011;3086;48.802;9.394;2022-08-30T20:08:15;4.67;;;3.90;;
6111;SDS011;3086;48.802;9.394;2022-08-30T20:11:36;4.93;;;3.93;;
6111;SDS011;3086;48.802;9.394;2022-08-30T20:15:01;4.93;;;3.90;;
6111;SDS011;3086;48.802;9.394;2022-08-30T20:18:28;5.47;;;3.70;;
6111;SDS011;3086;48.802;9.394;2022-08-30T20:21:49;6.80;;;3.73;;
6111;SDS011;3086;48.802;9.394;2022-08-30T20:25:12;6.03;;;3.60;;
6111;SDS011;3086;48.802;9.394;2022-08-30T20:28:34;4.40;;;3.27;;
6111;SDS011;3086;48.802;9.394;2022-08-30T20:31:56;5.50;;;3.50;;
6111;SDS011;3086;48.802;9.394;2022-08-30T20:35:18;4.90;;;3.37;;
6111;SDS011;3086;48.802;9.394;2022-08-30T20:38:39;4.07;;;3.63;;
6111;SDS011;3086;48.802;9.394;2022-08-30T20:42:02;4.17;;;3.80;;
6111;SDS011;3086;48.802;9.394;2022-08-30T20:45:24;4.23;;;3.77;;
6111;SDS011;3086;48.802;9.394;2022-08-30T20:48:46;4.63;;;3.27;;
6111;SDS011;3086;48.802;9.394;2022-08-30T20:52:08;7.40;;;3.50;;
6111;SDS011;3086;48.802;9.394;2022-08-30T20:55:30;4.33;;;3.93;;
6111;SDS011;3086;48.802;9.394;2022-08-30T20:58:53;4.77;;;3.93;;
6111;SDS011;3086;48.802;9.394;2022-08-30T21:02:14;5.87;;;3.80;;
6111;SDS011;3086;48.802;9.394;2022-08-30T21:05:36;4.43;;;3.93;;
6111;SDS011;3086;48.802;9.394;2022-08-30T21:08:57;4.73;;;4.10;;
6111;SDS011;3086;48.802;9.394;2022-08-30T21:12:19;4.93;;;4.43;;
6111;SDS011;3086;48.802;9.394;2022-08-30T21:15:43;5.57;;;4.10;;
6111;SDS011;3086;48.802;9.394;2022-08-30T21:19:05;5.90;;;4.03;;
6111;SDS011;3086;48.802;9.394;2022-08-30T21:22:26;4.50;;;4.10;;
6111;SDS011;3086;48.802;9.394;2022-08-30T21:25:48;7.60;;;4.57;;
6111;SDS011;3086;48.802;9.394;2022-08-30T21:29:10;5.47;;;4.40;;
6111;SDS011;3086;48.802;9.394;2022-08-30T21:32:33;6.40;;;4.10;;
6111;SDS011;3086;48.802;9.394;2022-08-30T21:35:56;4.43;;;3.87;;
6111;SDS011;3086;48.802;9.394;2022-08-30T21:39:43;4.97;;;3.70;;